createdAt,value
2019-03-10T00:00:09.063Z,10.10
2019-03-10T00:02:56.447Z,10.20
2019-03-10T00:05:44.190Z,10.20
2019-03-10T00:08:31.820Z,10.20
2019-03-10T00:11:19.413Z,10.20
2019-03-10T00:14:07.387Z,10.30
2019-03-10T00:16:55.206Z,10.30
2019-03-10T00:19:43.156Z,10.20
2019-03-10T00:22:30.545Z,10.20
2019-03-10T00:25:17.754Z,10.10
2019-03-10T00:28:05.520Z,10.10
2019-03-10T00:30:52.910Z,10.10
2019-03-10T00:33:40.548Z,10.00
2019-03-10T00:36:27.961Z,10.00
2019-03-10T00:39:39.818Z,10.10
2019-03-10T00:42:58.188Z,10.10
2019-03-10T00:46:27.955Z,10.00
2019-03-10T00:50:01.379Z,10.00
2019-03-10T00:53:01.492Z,9.90
2019-03-10T00:55:49.066Z,9.90
2019-03-10T00:58:36.747Z,9.80
2019-03-10T01:01:24.379Z,9.70
2019-03-10T01:04:12.279Z,9.60
2019-03-10T01:07:01.565Z,9.50
2019-03-10T01:09:48.725Z,9.50
2019-03-10T01:12:36.387Z,9.50
2019-03-10T01:15:23.414Z,9.50
2019-03-10T01:18:13.141Z,9.40
2019-03-10T01:21:03.539Z,9.30
2019-03-10T01:23:50.929Z,9.40
2019-03-10T01:26:38.576Z,9.30
2019-03-10T01:29:25.859Z,9.40
2019-03-10T01:32:42.175Z,9.50
2019-03-10T01:35:32.723Z,9.50
2019-03-10T01:38:20.557Z,9.50
2019-03-10T01:41:07.860Z,9.50
2019-03-10T01:43:55.507Z,9.50
2019-03-10T01:46:42.981Z,9.60
2019-03-10T01:49:30.015Z,9.60
2019-03-10T01:52:17.130Z,9.60
2019-03-10T01:55:04.982Z,9.50
2019-03-10T01:57:52.366Z,9.50
2019-03-10T02:00:39.962Z,9.60
2019-03-10T02:03:27.685Z,9.50
2019-03-10T02:06:15.274Z,9.50
2019-03-10T02:09:02.928Z,9.50
2019-03-10T02:11:50.920Z,9.50
2019-03-10T02:14:38.440Z,9.50
2019-03-10T02:17:26.187Z,9.40
2019-03-10T02:20:15.913Z,9.40
2019-03-10T02:23:03.631Z,9.50
2019-03-10T02:25:51.637Z,9.40
2019-03-10T02:28:39.008Z,9.30
2019-03-10T02:31:26.711Z,9.30
2019-03-10T02:34:14.080Z,9.20
2019-03-10T02:37:01.771Z,9.30
2019-03-10T02:39:49.295Z,9.30
2019-03-10T02:42:36.888Z,9.30
2019-03-10T02:45:23.973Z,9.30
2019-03-10T02:48:11.027Z,9.30
2019-03-10T02:50:58.109Z,9.20
2019-03-10T02:53:45.929Z,9.30
2019-03-10T02:56:33.510Z,9.30
2019-03-10T02:59:20.788Z,9.30
2019-03-10T03:02:08.321Z,9.30
2019-03-10T03:04:56.022Z,9.20
2019-03-10T03:07:43.409Z,9.20
2019-03-10T03:10:30.687Z,9.20
2019-03-10T03:13:18.497Z,9.10
2019-03-10T03:16:06.091Z,9.20
2019-03-10T03:18:53.143Z,9.30
2019-03-10T03:21:43.453Z,9.70
2019-03-10T03:24:29.431Z,9.80
2019-03-10T03:27:16.913Z,9.60
2019-03-10T03:30:04.566Z,9.30
2019-03-10T03:32:51.897Z,9.10
2019-03-10T03:35:48.262Z,8.90
2019-03-10T03:38:38.572Z,8.80
2019-03-10T03:41:26.532Z,8.70
2019-03-10T03:44:14.354Z,8.50
2019-03-10T03:47:02.207Z,8.40
2019-03-10T03:49:49.414Z,8.40
2019-03-10T03:52:37.001Z,8.30
2019-03-10T03:55:24.436Z,8.20
2019-03-10T03:58:12.087Z,8.20
2019-03-10T04:01:04.589Z,8.20
2019-03-10T04:03:52.707Z,8.20
2019-03-10T04:06:40.594Z,8.20
2019-03-10T04:09:28.289Z,8.20
2019-03-10T04:12:15.967Z,8.20
2019-03-10T04:15:03.400Z,8.20
2019-03-10T04:17:50.779Z,8.20
2019-03-10T04:20:40.107Z,8.00
2019-03-10T04:23:32.623Z,8.10
2019-03-10T04:26:22.203Z,8.00
2019-03-10T04:29:13.911Z,8.00
2019-03-10T04:32:04.311Z,7.90
2019-03-10T04:34:55.740Z,7.80
2019-03-10T04:37:45.709Z,7.80
2019-03-10T04:40:36.613Z,7.80
2019-03-10T04:43:27.728Z,7.70
2019-03-10T04:46:17.306Z,7.70
2019-03-10T04:49:05.567Z,7.70
2019-03-10T04:51:54.824Z,7.60
2019-03-10T04:55:13.377Z,7.60
2019-03-10T04:58:09.417Z,7.50
2019-03-10T05:01:02.043Z,7.50
2019-03-10T05:03:53.657Z,7.50
2019-03-10T05:06:43.653Z,7.50
2019-03-10T05:09:35.377Z,7.50
2019-03-10T05:12:24.431Z,7.40
2019-03-10T05:15:15.054Z,7.40
2019-03-10T05:18:04.192Z,7.40
2019-03-10T05:20:57.966Z,7.30
2019-03-10T05:23:47.843Z,7.30
2019-03-10T05:26:37.755Z,7.20
2019-03-10T05:29:29.040Z,7.40
2019-03-10T05:32:22.826Z,7.40
2019-03-10T05:35:15.424Z,7.30
2019-03-10T05:38:03.841Z,7.20
2019-03-10T05:40:53.635Z,7.30
2019-03-10T05:43:46.467Z,7.30
2019-03-10T05:46:37.239Z,7.20
2019-03-10T05:49:30.202Z,7.30
2019-03-10T05:52:20.464Z,7.30
2019-03-10T05:55:09.955Z,7.20
2019-03-10T05:58:00.604Z,7.20
2019-03-10T06:00:49.736Z,7.20
2019-03-10T06:03:38.898Z,7.40
2019-03-10T06:06:29.449Z,7.30
2019-03-10T06:09:19.258Z,7.30
2019-03-10T06:12:09.254Z,7.30
2019-03-10T06:15:01.006Z,7.30
2019-03-10T06:17:49.927Z,7.40
2019-03-10T06:20:39.207Z,7.40
2019-03-10T06:23:30.626Z,7.40
2019-03-10T06:26:22.514Z,7.40
2019-03-10T06:29:11.402Z,7.30
2019-03-10T06:32:01.899Z,7.30
2019-03-10T06:34:52.878Z,7.30
2019-03-10T06:37:43.416Z,7.40
2019-03-10T06:40:32.900Z,7.40
2019-03-10T06:43:21.950Z,7.40
2019-03-10T06:46:16.737Z,7.40
2019-03-10T06:49:05.276Z,7.50
2019-03-10T06:51:58.547Z,7.40
2019-03-10T06:54:48.007Z,7.50
2019-03-10T06:57:41.994Z,7.50
2019-03-10T07:00:33.189Z,7.60
2019-03-10T07:03:22.688Z,7.60
2019-03-10T07:06:12.469Z,7.70
2019-03-10T07:09:03.254Z,7.70
2019-03-10T07:11:55.595Z,7.80
2019-03-10T07:14:47.430Z,7.80
2019-03-10T07:17:37.208Z,7.90
2019-03-10T07:20:31.286Z,7.90
2019-03-10T07:23:23.003Z,8.00
2019-03-10T07:26:13.800Z,8.00
2019-03-10T07:29:17.407Z,8.10
2019-03-10T07:32:20.617Z,8.10
2019-03-10T07:35:27.574Z,8.20
2019-03-10T07:38:28.392Z,8.30
2019-03-10T07:41:24.249Z,8.30
2019-03-10T07:44:37.772Z,8.40
2019-03-10T07:47:45.284Z,8.40
2019-03-10T07:50:45.012Z,8.50
2019-03-10T07:53:44.495Z,8.50
2019-03-10T07:56:52.592Z,8.50
2019-03-10T08:00:03.388Z,8.50
2019-03-10T08:03:17.521Z,8.60
2019-03-10T08:06:29.382Z,8.70
2019-03-10T08:09:51.060Z,8.80
2019-03-10T08:13:12.155Z,8.90
2019-03-10T08:16:32.965Z,9.10
2019-03-10T08:19:39.547Z,9.30
2019-03-10T08:22:59.213Z,9.60
2019-03-10T08:26:07.037Z,9.70
2019-03-10T08:29:14.319Z,10.10
2019-03-10T08:32:29.566Z,10.30
2019-03-10T08:35:45.686Z,10.40
2019-03-10T08:39:03.994Z,10.50
2019-03-10T08:42:23.382Z,10.70
2019-03-10T08:45:26.921Z,10.80
2019-03-10T08:48:50.073Z,10.80
2019-03-10T08:51:53.015Z,10.90
2019-03-10T08:54:59.661Z,11.00
2019-03-10T08:58:05.386Z,11.00
2019-03-10T09:01:20.256Z,11.20
2019-03-10T09:04:21.224Z,11.20
2019-03-10T09:07:29.201Z,11.20
2019-03-10T09:10:36.146Z,11.30
2019-03-10T09:13:33.064Z,11.30
2019-03-10T09:16:33.049Z,11.30
2019-03-10T09:19:40.302Z,11.30
2019-03-10T09:22:40.814Z,11.30
2019-03-10T09:25:59.333Z,11.40
2019-03-10T09:29:08.241Z,11.50
2019-03-10T09:32:05.487Z,11.40
2019-03-10T09:35:00.842Z,11.40
2019-03-10T09:38:11.273Z,11.30
2019-03-10T09:41:20.004Z,11.30
2019-03-10T09:44:27.112Z,11.30
2019-03-10T09:47:33.737Z,11.30
2019-03-10T09:51:43.995Z,11.30
2019-03-10T09:54:55.367Z,11.30
2019-03-10T09:58:08.385Z,11.30
2019-03-10T10:01:23.301Z,11.20
2019-03-10T10:08:58.063Z,11.10
2019-03-10T10:12:13.530Z,11.10
2019-03-10T10:15:22.775Z,11.10
2019-03-10T10:18:46.832Z,11.10
2019-03-10T10:22:08.100Z,11.10
2019-03-10T10:25:23.484Z,11.00
2019-03-10T10:32:33.276Z,11.20
2019-03-10T10:35:43.372Z,11.30
2019-03-10T10:39:06.046Z,11.50
2019-03-10T10:42:13.423Z,11.60
2019-03-10T10:45:30.911Z,11.70
2019-03-10T10:48:58.014Z,11.80
2019-03-10T10:52:16.776Z,11.90
2019-03-10T10:55:22.732Z,11.90
2019-03-10T10:58:37.076Z,11.90
2019-03-10T11:01:34.568Z,11.90
2019-03-10T11:10:52.471Z,12.00
2019-03-10T11:14:02.299Z,12.10
2019-03-10T11:17:11.671Z,12.20
2019-03-10T11:20:05.531Z,12.30
2019-03-10T11:22:59.811Z,12.30
2019-03-10T11:26:23.273Z,12.40
2019-03-10T11:29:17.966Z,12.50
2019-03-10T11:32:33.498Z,12.50
2019-03-10T11:35:40.331Z,12.50
2019-03-10T11:38:51.052Z,12.70
2019-03-10T11:41:59.964Z,12.70
2019-03-10T11:45:13.091Z,12.80
2019-03-10T11:48:43.923Z,12.70
2019-03-10T11:51:56.991Z,12.80
2019-03-10T11:55:01.095Z,13.10
2019-03-10T11:57:57.724Z,13.70
2019-03-10T12:00:57.544Z,13.90
2019-03-10T12:03:50.480Z,13.80
2019-03-10T12:06:57.304Z,13.60
2019-03-10T12:09:44.734Z,13.60
2019-03-10T12:12:32.267Z,13.50
2019-03-10T12:15:19.758Z,13.50
2019-03-10T12:18:07.184Z,13.50
2019-03-10T12:20:55.081Z,13.50
2019-03-10T12:23:42.980Z,13.50
2019-03-10T12:26:30.317Z,13.70
2019-03-10T12:29:17.743Z,14.20
2019-03-10T12:32:05.325Z,14.20
2019-03-10T12:34:52.877Z,14.60
2019-03-10T12:37:40.601Z,14.50
2019-03-10T12:40:27.910Z,14.20
2019-03-10T12:43:15.170Z,14.20
2019-03-10T12:46:02.602Z,14.10
2019-03-10T12:48:50.115Z,14.10
2019-03-10T12:51:37.825Z,14.00
2019-03-10T12:54:24.879Z,14.00
2019-03-10T12:57:12.297Z,13.60
2019-03-10T12:59:59.913Z,13.60
2019-03-10T13:02:47.873Z,14.00
2019-03-10T13:05:35.422Z,14.10
2019-03-10T13:08:22.689Z,14.00
2019-03-10T13:11:10.276Z,14.10
2019-03-10T13:16:24.512Z,14.20
2019-03-10T13:19:12.912Z,15.00
2019-03-10T13:22:01.014Z,14.80
2019-03-10T13:24:48.407Z,15.50
2019-03-10T13:27:35.788Z,15.50
2019-03-10T13:30:23.372Z,15.40
2019-03-10T13:33:10.790Z,15.50
2019-03-10T13:35:58.246Z,15.90
2019-03-10T13:38:45.909Z,15.70
2019-03-10T13:41:33.595Z,15.70
2019-03-10T13:44:20.942Z,16.60
2019-03-10T13:47:08.107Z,16.10
2019-03-10T13:49:55.212Z,16.30
2019-03-10T13:52:42.535Z,16.30
2019-03-10T13:55:29.716Z,16.50
2019-03-10T13:58:17.269Z,16.90
2019-03-10T14:01:04.962Z,17.00
2019-03-10T14:03:52.386Z,16.90
2019-03-10T14:06:39.550Z,16.50
2019-03-10T14:09:26.693Z,16.80
2019-03-10T14:12:13.734Z,16.50
2019-03-10T14:15:01.037Z,17.00
2019-03-10T14:17:48.641Z,16.70
2019-03-10T14:20:36.048Z,17.10
2019-03-10T14:23:23.345Z,17.30
2019-03-10T14:26:10.684Z,17.00
2019-03-10T14:28:58.379Z,16.60
2019-03-10T14:31:46.004Z,16.90
2019-03-10T14:34:34.056Z,17.20
2019-03-10T14:37:21.734Z,17.30
2019-03-10T14:40:10.071Z,17.00
2019-03-10T14:42:57.765Z,17.00
2019-03-10T14:45:44.839Z,17.20
2019-03-10T14:48:32.603Z,17.50
2019-03-10T14:51:20.247Z,18.00
2019-03-10T14:54:07.775Z,17.30
2019-03-10T14:56:55.127Z,17.10
2019-03-10T14:59:42.424Z,17.00
2019-03-10T15:02:29.656Z,16.60
2019-03-10T15:05:17.076Z,15.50
2019-03-10T15:08:04.335Z,15.00
2019-03-10T15:10:52.534Z,16.00
2019-03-10T15:13:39.874Z,16.40
2019-03-10T15:16:27.270Z,17.00
2019-03-10T15:19:14.610Z,17.50
2019-03-10T15:22:01.975Z,16.50
2019-03-10T15:24:49.618Z,15.10
2019-03-10T15:27:37.669Z,14.50
2019-03-10T15:30:25.209Z,14.40
2019-03-10T15:33:12.639Z,14.10
2019-03-10T15:35:59.934Z,14.10
2019-03-10T15:38:47.341Z,13.90
2019-03-10T15:41:35.075Z,14.00
2019-03-10T15:44:22.728Z,14.30
2019-03-10T15:47:10.114Z,14.70
2019-03-10T15:49:57.388Z,13.90
2019-03-10T15:52:44.861Z,13.60
2019-03-10T15:55:32.472Z,12.70
2019-03-10T15:58:20.125Z,12.30
2019-03-10T16:01:08.142Z,12.30
2019-03-10T16:03:55.622Z,12.60
2019-03-10T16:06:42.988Z,13.00
2019-03-10T16:09:30.487Z,13.60
2019-03-10T16:12:17.737Z,13.90
2019-03-10T16:15:06.157Z,13.90
2019-03-10T16:17:53.805Z,13.80
2019-03-10T16:20:42.195Z,13.70
2019-03-10T16:23:29.612Z,13.50
2019-03-10T16:26:16.914Z,13.10
2019-03-10T16:29:04.941Z,12.70
2019-03-10T16:31:52.432Z,12.80
2019-03-10T16:34:39.457Z,12.90
2019-03-10T16:37:26.606Z,12.80
2019-03-10T16:40:14.568Z,12.60
2019-03-10T16:43:02.161Z,12.50
2019-03-10T16:45:49.927Z,12.40
2019-03-10T16:48:37.663Z,12.30
2019-03-10T16:51:32.602Z,12.20
2019-03-10T16:54:24.834Z,12.20
2019-03-10T16:57:12.699Z,12.20
2019-03-10T17:00:00.425Z,12.10
2019-03-10T17:02:48.018Z,12.20
2019-03-10T17:05:35.406Z,12.20
2019-03-10T17:08:22.933Z,12.10
2019-03-10T17:11:10.525Z,12.00
2019-03-10T17:14:04.470Z,11.90
2019-03-10T17:16:51.923Z,11.80
2019-03-10T17:19:39.199Z,11.70
2019-03-10T17:22:26.808Z,11.70
2019-03-10T17:25:15.024Z,11.60
2019-03-10T17:28:03.420Z,11.60
2019-03-10T17:31:09.603Z,11.60
2019-03-10T17:34:10.828Z,11.60
2019-03-10T17:36:53.980Z,11.50
2019-03-10T17:39:41.638Z,11.40
2019-03-10T17:42:35.478Z,11.30
2019-03-10T17:45:23.091Z,11.30
2019-03-10T17:48:13.048Z,11.20
2019-03-10T17:51:00.377Z,11.20
2019-03-10T17:53:47.702Z,11.10
2019-03-10T17:56:34.818Z,10.90
2019-03-10T17:59:22.365Z,10.80
2019-03-10T18:02:09.822Z,10.70
2019-03-10T18:04:57.120Z,10.60
2019-03-10T18:07:48.880Z,10.80
2019-03-10T18:10:36.720Z,10.80
2019-03-10T18:13:36.210Z,10.70
2019-03-10T18:16:24.357Z,10.80
2019-03-10T18:19:11.479Z,10.80
2019-03-10T18:22:04.403Z,10.80
2019-03-10T18:25:04.977Z,10.80
2019-03-10T18:27:53.516Z,10.80
2019-03-10T18:30:41.378Z,10.80
2019-03-10T18:33:29.025Z,10.80
2019-03-10T18:36:17.083Z,10.60
2019-03-10T18:39:06.547Z,10.50
2019-03-10T18:41:54.746Z,10.30
2019-03-10T18:44:48.463Z,10.30
2019-03-10T18:47:36.166Z,10.40
2019-03-10T18:50:36.053Z,10.30
2019-03-10T18:53:24.316Z,10.40
2019-03-10T18:56:15.310Z,10.30
2019-03-10T18:59:08.431Z,10.30
2019-03-10T19:02:00.045Z,10.20
2019-03-10T19:04:52.861Z,10.30
2019-03-10T19:07:43.748Z,10.30
2019-03-10T19:10:37.528Z,9.90
2019-03-10T19:13:31.396Z,8.80
2019-03-10T19:16:22.285Z,7.80
2019-03-10T19:19:12.535Z,7.20
2019-03-10T19:22:00.657Z,6.70
2019-03-10T19:24:48.331Z,6.60
2019-03-10T19:27:36.359Z,6.30
2019-03-10T19:30:23.799Z,6.30
2019-03-10T19:33:11.951Z,6.40
2019-03-10T19:36:00.145Z,6.50
2019-03-10T19:38:47.879Z,6.50
2019-03-10T19:41:35.202Z,6.50
2019-03-10T19:44:22.309Z,6.70
2019-03-10T19:47:17.375Z,6.70
2019-03-10T19:50:05.032Z,6.70
2019-03-10T19:52:57.882Z,6.60
2019-03-10T19:55:48.279Z,6.60
2019-03-10T19:58:42.278Z,6.80
2019-03-10T20:01:33.882Z,6.90
2019-03-10T20:04:21.356Z,6.90
2019-03-10T20:07:09.060Z,6.90
2019-03-10T20:09:56.662Z,6.90
2019-03-10T20:12:43.824Z,7.10
2019-03-10T20:15:31.183Z,7.20
2019-03-10T20:18:18.517Z,7.10
2019-03-10T20:21:06.093Z,7.10
2019-03-10T20:23:53.518Z,7.10
2019-03-10T20:26:40.641Z,7.30
2019-03-10T20:29:27.997Z,7.20
2019-03-10T20:32:15.826Z,7.20
2019-03-10T20:35:03.301Z,7.20
2019-03-10T20:37:50.691Z,7.20
2019-03-10T20:40:38.128Z,7.30
2019-03-10T20:43:25.191Z,7.40
2019-03-10T20:46:12.573Z,7.40
2019-03-10T20:48:59.766Z,7.50
2019-03-10T20:51:47.604Z,7.50
2019-03-10T20:54:35.156Z,7.40
2019-03-10T20:57:22.856Z,7.50
2019-03-10T21:00:12.777Z,7.50
2019-03-10T21:03:00.773Z,7.40
2019-03-10T21:05:48.439Z,7.40
2019-03-10T21:08:35.875Z,7.30
2019-03-10T21:11:23.198Z,7.40
2019-03-10T21:14:10.293Z,7.40
2019-03-10T21:16:58.060Z,7.40
2019-03-10T21:19:45.603Z,7.40
2019-03-10T21:22:33.502Z,7.50
2019-03-10T21:25:21.417Z,7.50
2019-03-10T21:28:08.967Z,7.40
2019-03-10T21:30:56.577Z,7.30
2019-03-10T21:33:43.666Z,7.10
2019-03-10T21:36:31.366Z,7.10
2019-03-10T21:39:19.030Z,7.30
2019-03-10T21:42:06.304Z,7.30
2019-03-10T21:44:53.793Z,7.20
2019-03-10T21:47:41.114Z,7.30
2019-03-10T21:50:29.126Z,7.30
2019-03-10T21:53:16.767Z,7.20
2019-03-10T21:56:04.610Z,7.20
2019-03-10T21:58:52.128Z,7.20
2019-03-10T22:01:40.026Z,7.20
2019-03-10T22:04:27.531Z,7.20
2019-03-10T22:07:15.293Z,7.20
2019-03-10T22:10:02.581Z,7.10
2019-03-10T22:12:55.976Z,7.00
2019-03-10T22:15:52.025Z,7.00
2019-03-10T22:22:04.864Z,6.90
2019-03-10T22:25:12.183Z,6.80
2019-03-10T22:27:59.823Z,6.80
2019-03-10T22:30:50.695Z,6.80
2019-03-10T22:33:42.416Z,6.70
2019-03-10T22:36:37.895Z,6.70
2019-03-10T22:39:31.571Z,6.70
2019-03-10T22:42:24.142Z,6.70
2019-03-10T22:45:17.807Z,6.80
2019-03-10T22:48:04.909Z,6.80
2019-03-10T22:50:57.053Z,6.80
2019-03-10T22:53:51.644Z,7.00
2019-03-10T22:56:41.760Z,7.00
2019-03-10T22:59:45.379Z,7.00
2019-03-10T23:02:56.852Z,6.90
2019-03-10T23:05:54.502Z,7.00
2019-03-10T23:08:43.869Z,6.90
2019-03-10T23:11:33.245Z,6.90
2019-03-10T23:14:23.350Z,6.90
2019-03-10T23:17:13.430Z,6.90
2019-03-10T23:20:04.322Z,7.00
2019-03-10T23:23:13.966Z,6.90
2019-03-10T23:26:18.709Z,6.80
2019-03-10T23:29:10.035Z,6.80
2019-03-10T23:32:05.018Z,6.70
2019-03-10T23:35:08.733Z,6.80
2019-03-10T23:38:07.336Z,6.70
2019-03-10T23:40:58.935Z,6.60
2019-03-10T23:43:48.512Z,6.60
2019-03-10T23:46:39.427Z,6.60
2019-03-10T23:49:48.347Z,6.70
2019-03-10T23:52:46.101Z,6.70
2019-03-10T23:55:31.136Z,6.60
2019-03-10T23:58:23.620Z,6.50
